Time;durP1;ratioP1;P1;durP2;ratioP2;P2;SDS_P1;SDS_P2;PMS_P1;PMS_P2;Temp;Humidity;BMP_temperature;BMP_pressure;BME280_temperature;BME280_humidity;BME280_pressure;Samples;Min_cycle;Max_cycle;Signal;HPM_P1;HPM_P2
2023/04/05 00:00:10;;;;;;;14.90;11.07;;;;;;;1.80;92.64;102385.69;4927073;29;20493;-81
2023/04/05 00:02:36;;;;;;;17.15;11.35;;;;;;;1.74;92.84;102389.25;4931299;29;20114;-80
2023/04/05 00:05:03;;;;;;;16.08;11.30;;;;;;;1.69;93.12;102391.03;4931757;29;20036;-81
2023/04/05 00:07:28;;;;;;;13.80;10.02;;;;;;;1.59;93.20;102399.78;4926756;29;20091;-81
2023/04/05 00:09:54;;;;;;;17.27;10.88;;;;;;;1.52;93.69;102393.81;4927235;29;20036;-81
2023/04/05 00:12:19;;;;;;;13.07;10.40;;;;;;;1.50;93.88;102395.56;4927032;29;20039;-81
2023/04/05 00:14:45;;;;;;;15.65;10.70;;;;;;;1.45;94.09;102391.31;4920996;29;20046;-81
2023/04/05 00:17:11;;;;;;;16.52;10.85;;;;;;;1.47;94.23;102400.78;4916288;29;20047;-81
2023/04/05 00:19:36;;;;;;;14.40;11.45;;;;;;;1.37;94.51;102395.72;4915030;29;20150;-81
2023/04/05 00:22:09;;;;;;;14.70;11.07;;;;;;;1.40;94.97;102403.47;4913998;29;20031;-81
2023/04/05 00:24:40;;;;;;;14.32;11.00;;;;;;;1.36;94.72;102392.28;4929322;29;20098;-81
2023/04/05 00:27:06;;;;;;;18.98;11.35;;;;;;;1.29;95.33;102392.38;4929006;29;20445;-80
2023/04/05 00:29:31;;;;;;;16.58;11.10;;;;;;;1.30;94.49;102391.50;4935713;29;20043;-81
2023/04/05 00:31:57;;;;;;;15.23;11.02;;;;;;;1.34;95.24;102388.84;4915208;29;20039;-80
2023/04/05 00:34:22;;;;;;;15.52;11.70;;;;;;;1.25;94.89;102388.94;4913238;29;20095;-79
2023/04/05 00:36:47;;;;;;;15.07;11.15;;;;;;;1.18;95.33;102382.09;4928398;29;20043;-79
2023/04/05 00:39:13;;;;;;;15.43;11.15;;;;;;;1.13;96.18;102379.53;4952249;29;20039;-82
2023/04/05 00:41:39;;;;;;;14.48;11.15;;;;;;;1.13;95.91;102378.69;4929759;29;20055;-81
2023/04/05 00:44:06;;;;;;;14.02;10.95;;;;;;;1.11;95.75;102385.63;4931612;29;20123;-81
2023/04/05 00:46:36;;;;;;;14.73;11.73;;;;;;;1.05;96.04;102376.19;4951773;29;20027;-80
2023/04/05 00:49:05;;;;;;;13.60;10.90;;;;;;;1.05;96.57;102368.41;4942328;29;20110;-80
2023/04/05 00:51:32;;;;;;;19.10;11.75;;;;;;;0.97;96.26;102375.41;4950956;29;20069;-80
2023/04/05 00:54:02;;;;;;;18.35;12.73;;;;;;;0.94;96.99;102362.47;4950002;29;20039;-80
2023/04/05 00:56:29;;;;;;;16.05;12.38;;;;;;;0.89;97.44;102369.44;4950783;29;20043;-79
2023/04/05 00:58:55;;;;;;;18.80;12.30;;;;;;;0.82;97.41;102368.63;4933792;29;20123;-79
2023/04/05 01:01:21;;;;;;;16.52;11.93;;;;;;;0.74;97.18;102365.22;4913744;29;20115;-80
2023/04/05 01:03:58;;;;;;;17.65;12.07;;;;;;;0.72;98.03;102366.13;4945191;29;20067;-80
2023/04/05 01:06:23;;;;;;;19.23;12.80;;;;;;;0.70;98.24;102379.09;4945963;29;20039;-80
2023/04/05 01:09:22;;;;;;;19.58;11.80;;;;;;;0.74;98.31;102379.91;4945631;29;20046;-80
2023/04/05 01:11:48;;;;;;;18.80;12.95;;;;;;;0.70;97.82;102373.91;4930527;29;20039;-80
2023/04/05 01:14:14;;;;;;;15.93;12.48;;;;;;;0.57;98.01;102378.34;4932656;29;20035;-80
2023/04/05 01:16:39;;;;;;;16.38;12.85;;;;;;;0.60;98.92;102362.78;4926932;29;20031;-80
2023/04/05 01:19:05;;;;;;;15.98;12.80;;;;;;;0.54;98.09;102375.78;4937648;29;20042;-80
2023/04/05 01:21:33;;;;;;;17.45;12.73;;;;;;;0.54;99.04;102380.94;4950148;29;20110;-80
2023/04/05 01:24:37;;;;;;;15.95;12.68;;;;;;;0.58;98.43;102377.47;4932896;29;20496;-80
2023/04/05 01:27:30;;;;;;;16.20;12.25;;;;;;;0.56;98.62;102365.41;4855920;29;20068;-80
2023/04/05 01:30:03;;;;;;;;;;;;;;;0.65;96.60;102365.31;4933802;29;20121;-80
2023/04/05 01:32:28;;;;;;;;;;;;;;;0.66;95.80;102354.09;4950177;29;19917;-80
2023/04/05 01:35:15;;;;;;;;;;;;;;;0.66;95.64;102356.69;4930098;29;19914;-80
2023/04/05 01:37:44;;;;;;;;;;;;;;;0.66;94.78;102355.81;4952521;29;19910;-80
2023/04/05 01:40:10;;;;;;;;;;;;;;;0.63;94.54;102352.38;4926728;29;19915;-80
2023/04/05 01:42:35;;;;;;;;;;;;;;;0.61;93.74;102354.13;4946088;29;20030;-80
2023/04/05 01:45:00;;;;;;;;;;;;;;;0.60;93.53;102357.59;4950359;29;19918;-80
2023/04/05 01:47:26;;;;;;;;;;;;;;;0.58;93.20;102353.31;4947076;29;19914;-80
2023/04/05 01:49:51;;;;;;;;;;;;;;;0.57;93.35;102355.03;4956073;28;19997;-80
2023/04/05 01:52:16;;;;;;;;;;;;;;;0.56;92.66;102350.72;4935000;29;19910;-80
2023/04/05 01:54:41;;;;;;;;;;;;;;;0.54;92.80;102343.84;4951689;29;19910;-80
2023/04/05 01:57:07;;;;;;;;;;;;;;;0.52;92.34;102333.50;4950406;29;19917;-80
2023/04/05 01:59:32;;;;;;;;;;;;;;;0.49;92.26;102338.72;4951384;29;19921;-80
2023/04/05 02:01:57;;;;;;;;;;;;;;;0.46;92.40;102340.47;4950000;29;19918;-80
2023/04/05 02:04:22;;;;;;;;;;;;;;;0.43;91.61;102348.25;4951630;29;20427;-80
2023/04/05 02:06:48;;;;;;;;;;;;;;;0.41;91.73;102342.22;4935023;29;19957;-80
2023/04/05 02:09:13;;;;;;;;;;;;;;;0.41;91.72;102345.69;4932581;29;19914;-80
2023/04/05 02:11:38;;;;;;;;;;;;;;;0.36;91.46;102337.06;4931953;29;19914;-80
2023/04/05 02:14:04;;;;;;;;;;;;;;;0.34;91.14;102338.81;4945087;29;20675;-80
2023/04/05 02:16:32;;;;;;;;;;;;;;;0.31;90.92;102333.66;4922242;29;20356;-80
2023/04/05 02:18:58;;;;;;;;;;;;;;;0.29;91.18;102343.16;4963506;28;19958;-80
2023/04/05 02:21:24;;;;;;;;;;;;;;;0.28;91.11;102333.69;4930020;29;19921;-80
2023/04/05 02:23:50;;;;;;;;;;;;;;;0.27;90.76;102338.00;4921920;29;19922;-80
2023/04/05 02:26:15;;;;;;;;;;;;;;;0.25;90.85;102328.53;4951154;29;19917;-80
2023/04/05 02:28:40;;;;;;;;;;;;;;;0.23;90.45;102336.31;4950962;29;19950;-79
2023/04/05 02:31:12;;;;;;;;;;;;;;;0.20;90.52;102325.97;4948387;29;19933;-79
2023/04/05 02:33:38;;;;;;;;;;;;;;;0.18;90.53;102327.72;4933839;28;19914;-80
2023/04/05 02:36:06;;;;;;;;;;;;;;;0.15;90.18;102332.06;4946175;28;19922;-79
2023/04/05 02:38:32;;;;;;;;;;;;;;;0.11;90.60;102330.38;4935117;29;20328;-79
2023/04/05 02:40:57;;;;;;;;;;;;;;;0.08;90.47;102330.41;4927487;29;19919;-80
2023/04/05 02:43:23;;;;;;;;;;;;;;;0.05;90.21;102328.69;4951119;29;19980;-80
2023/04/05 02:45:48;;;;;;;;;;;;;;;0.04;90.33;102323.53;4936814;29;20693;-80
2023/04/05 02:48:13;;;;;;;;;;;;;;;0.03;90.40;102327.84;4952372;29;19951;-79
2023/04/05 02:50:39;;;;;;;;;;;;;;;0.02;90.47;102325.25;4951817;29;20008;-80
2023/04/05 02:53:04;;;;;;;;;;;;;;;-0.02;90.21;102327.84;4953560;29;19972;-80
2023/04/05 02:55:29;;;;;;;;;;;;;;;-0.02;89.92;102330.44;4953649;29;19915;-80
2023/04/05 02:57:59;;;;;;;;;;;;;;;-0.02;90.26;102324.41;4920620;29;19925;-80
2023/04/05 03:00:24;;;;;;;;;;;;;;;-0.03;89.91;102318.34;4933704;29;19910;-80
2023/04/05 03:02:50;;;;;;;;;;;;;;;-0.04;89.77;102316.63;4966914;28;19914;-80
2023/04/05 03:05:17;;;;;;;;;;;;;;;-0.07;90.05;102321.84;4937165;29;19954;-80
2023/04/05 03:07:45;;;;;;;;;;;;;;;-0.12;89.81;102313.25;4946678;29;19915;-80
2023/04/05 03:10:12;;;;;;;;;;;;;;;-0.14;90.46;102315.00;4930996;29;19910;-80
2023/04/05 03:12:37;;;;;;;;;;;;;;;-0.16;89.85;102315.88;4958261;28;19941;-80
2023/04/05 03:15:03;;;;;;;;;;;;;;;-0.17;90.27;102309.84;4934443;29;20279;-80
2023/04/05 03:17:28;;;;;;;;;;;;;;;-0.16;89.77;102306.38;4949938;29;19911;-80
2023/04/05 03:19:53;;;;;;;;;;;;;;;-0.18;89.84;102302.94;4932685;29;19911;-80
2023/04/05 03:22:19;;;;;;;;;;;;;;;-0.19;89.52;102311.56;4952683;29;19915;-80
2023/04/05 03:24:45;;;;;;;;;;;;;;;-0.22;89.56;102296.09;4952572;29;20021;-81
2023/04/05 03:27:12;;;;;;;;;;;;;;;-0.23;90.08;102294.38;4953712;29;19998;-80
2023/04/05 03:29:37;;;;;;;;;;;;;;;-0.25;89.39;102292.66;4944324;29;19915;-80
2023/04/05 03:32:02;;;;;;;;;;;;;;;-0.29;89.98;102299.56;4949980;29;20300;-80
2023/04/05 03:34:28;;;;;;;;;;;;;;;-0.30;89.73;102292.69;4936991;29;19910;-80
2023/04/05 03:36:56;;;;;;;;;;;;;;;-0.33;89.85;102292.72;4953805;29;19914;-80
2023/04/05 03:39:21;;;;;;;;;;;;;;;-0.36;89.65;102293.59;4951538;29;19965;-80
2023/04/05 03:41:46;;;;;;;;;;;;;;;-0.38;89.52;102290.16;4954160;29;19915;-80
2023/04/05 03:44:11;;;;;;;;;;;;;;;-0.40;89.86;102302.22;4946844;29;19958;-80
2023/04/05 03:46:37;;;;;;;;;;;;;;;-0.40;90.01;102296.16;4942009;29;20044;-80
2023/04/05 03:49:06;;;;;;;;;;;;;;;-0.41;90.00;102295.31;4942381;29;19915;-80
2023/04/05 03:51:31;;;;;;;;;;;;;;;-0.43;89.46;102293.59;4933972;29;19922;-80
2023/04/05 03:53:56;;;;;;;;;;;;;;;-0.45;89.69;102288.44;4934243;29;20517;-80
2023/04/05 03:56:22;;;;;;;;;;;;;;;-0.48;89.50;102292.75;4934264;29;20394;-80
2023/04/05 03:58:47;;;;;;;;;;;;;;;-0.52;90.15;102286.75;4965721;28;19926;-80
2023/04/05 04:01:12;;;;;;;;;;;;;;;-0.53;90.23;102284.19;4940972;29;19918;-80
2023/04/05 04:03:38;;;;;;;;;;;;;;;-0.55;90.20;102291.09;4939471;29;19946;-80
2023/04/05 04:06:04;;;;;;;;;;;;;;;-0.58;89.65;102275.59;4942734;29;19914;-79
2023/04/05 04:08:32;;;;;;;;;;;;;;;-0.59;90.10;102281.63;4937268;29;19919;-81
2023/04/05 04:10:57;;;;;;;;;;;;;;;-0.60;90.26;102285.09;4951793;29;19989;-81
2023/04/05 04:13:23;;;;;;;;;;;;;;;-0.63;89.76;102279.06;4927745;29;20415;-80
2023/04/05 04:15:48;;;;;;;;;;;;;;;-0.65;89.60;102275.63;4946792;29;19954;-80
2023/04/05 04:18:13;;;;;;;;;;;;;;;-0.65;89.93;102275.63;4937865;29;19984;-79
2023/04/05 04:20:38;;;;;;;;;;;;;;;-0.66;89.86;102276.50;4943044;29;19918;-79
2023/04/05 04:23:05;;;;;;;;;;;;;;;-0.67;90.30;102281.66;4954982;28;20291;-81
2023/04/05 04:25:30;;;;;;;;;;;;;;;-0.67;90.46;102282.53;4947857;29;19914;-81
2023/04/05 04:27:55;;;;;;;;;;;;;;;-0.69;89.94;102278.25;4950379;29;19922;-81
2023/04/05 04:30:21;;;;;;;;;;;;;;;-0.70;90.29;102279.97;4953135;29;20368;-82
2023/04/05 04:32:57;;;;;;;;;;;;;;;-0.71;89.74;102283.41;4943488;29;20005;-81
2023/04/05 04:35:27;;;;;;;;;;;;;;;-0.70;89.72;102279.09;4933022;29;19921;-81
2023/04/05 04:37:58;;;;;;;;;;;;;;;-0.72;90.14;102276.53;4932596;29;19911;-81
2023/04/05 04:40:40;;;;;;;;;;;;;;;-0.73;90.54;102277.41;4923646;29;19915;-81
2023/04/05 04:43:13;;;;;;;;;;;;;;;-0.76;90.06;102277.41;4941687;29;20021;-82
2023/04/05 04:45:38;;;;;;;;;;;;;;;-0.79;89.83;102268.81;4951325;29;19997;-81
2023/04/05 04:48:03;;;;;;;;;;;;;;;-0.79;89.84;102276.56;4933043;29;20013;-80
2023/04/05 04:50:29;;;;;;;;;;;;;;;-0.81;90.26;102271.38;4945991;29;20298;-80
2023/04/05 04:52:54;;;;;;;;;;;;;;;-0.82;89.94;102277.41;4949771;29;19914;-80
2023/04/05 04:55:24;;;;;;;;;;;;;;;-0.84;89.49;102273.97;4931397;29;19969;-79
2023/04/05 04:57:53;;;;;;;;;;;;;;;-0.84;89.76;102279.13;4913714;29;20280;-79
2023/04/05 05:00:19;;;;;;;;;;;;;;;-0.84;89.71;102284.31;4922767;29;20390;-79
2023/04/05 05:02:45;;;;;;;;;;;;;;;-0.83;89.91;102270.53;4930681;29;19914;-79
2023/04/05 05:05:10;;;;;;;;;;;;;;;-0.84;90.64;102276.56;4949907;29;19919;-79
2023/04/05 05:07:35;;;;;;;;;;;;;;;-0.85;90.31;102276.56;4945011;29;19911;-79
2023/04/05 05:10:01;;;;;;;;;;;;;;;-0.87;90.48;102273.97;4932978;29;20342;-79
2023/04/05 05:12:27;;;;;;;;;;;;;;;-0.88;90.17;102277.44;4935221;29;19969;-79
2023/04/05 05:14:52;;;;;;;;;;;;;;;-0.89;90.47;102277.44;4936276;29;19930;-80
2023/04/05 05:17:17;;;;;;;;;;;;;;;-0.90;90.13;102276.59;4932600;29;19922;-80
2023/04/05 05:19:42;;;;;;;;;;;;;;;-0.91;90.66;102274.88;4935424;29;19911;-80
2023/04/05 05:22:07;;;;;;;;;;;;;;;-0.91;90.50;102272.28;4933228;29;19965;-80
2023/04/05 05:24:33;;;;;;;;;;;;;;;-0.90;90.17;102273.13;4932582;29;19922;-79
2023/04/05 05:26:58;;;;;;;;;;;;;;;-0.89;90.38;102267.97;4933797;29;19911;-79
2023/04/05 05:29:23;;;;;;;;;;;;;;;-0.88;90.22;102267.09;4932876;29;19926;-80
2023/04/05 05:31:49;;;;;;;;;;;;;;;-0.85;90.19;102267.09;4931644;29;19914;-79
2023/04/05 05:34:14;;;;;;;;;;;;;;;-0.82;90.03;102267.06;4932792;29;19911;-78
2023/04/05 05:36:40;;;;;;;;;;;;;;;-0.79;89.95;102267.09;4916626;29;19911;-79
2023/04/05 05:39:06;;;;;;;;;;;;;;;-0.76;89.94;102267.06;4931936;29;19952;-80
2023/04/05 05:41:31;;;;;;;;;;;;;;;-0.73;90.15;102267.06;4922281;29;20014;-80
2023/04/05 05:43:57;;;;;;;;;;;;;;;-0.72;90.49;102268.78;4931969;29;20005;-80
2023/04/05 05:46:22;;;;;;;;;;;;;;;-0.70;90.09;102261.88;4925257;29;19963;-80
2023/04/05 05:48:47;;;;;;;;;;;;;;;-0.65;89.40;102260.13;4913987;29;19911;-80
2023/04/05 05:51:12;;;;;;;;;;;;;;;-0.60;90.26;102262.69;4913622;29;19911;-80
2023/04/05 05:53:38;;;;;;;;;;;;;;;-0.55;90.75;102260.06;4917746;29;19906;-80
2023/04/05 05:56:04;;;;;;;;;;;;;;;-0.52;91.04;102266.06;4932253;29;19914;-80
2023/04/05 05:58:30;;;;;;;;;;;;;;;-0.47;91.32;102271.22;4947651;29;19956;-81
2023/04/05 06:00:55;;;;;;;;;;;;;;;-0.41;91.19;102276.34;4932486;29;19945;-82
2023/04/05 06:03:20;;;;;;;;;;;;;;;-0.35;91.65;102271.19;4932267;29;19937;-82
2023/04/05 06:05:53;;;;;;;;;;;;;;;-0.30;91.42;102272.00;4915726;29;20347;-82
2023/04/05 06:08:18;;;;;;;;;;;;;;;-0.23;91.35;102267.66;4932208;29;19918;-82
2023/04/05 06:10:43;;;;;;;;;;;;;;;-0.18;91.61;102274.50;4933560;29;19911;-82
2023/04/05 06:13:09;;;;;;;;;;;;;;;-0.09;91.44;102281.31;4935336;29;19911;-82
2023/04/05 06:15:34;;;;;;;;;;;;;;;-0.02;92.41;102273.50;4934431;29;19923;-82
2023/04/05 06:18:06;;;;;;;;;;;;;;;0.06;91.56;102272.63;4927420;29;19950;-83
2023/04/05 06:20:31;;;;;;;;;;;;;;;0.13;91.48;102274.28;4917049;29;19911;-81
2023/04/05 06:22:56;;;;;;;;;;;;;;;0.21;92.21;102282.84;4934007;29;19914;-81
2023/04/05 06:25:21;;;;;;;;;;;;;;;0.30;92.71;102278.44;4936191;29;20018;-81
2023/04/05 06:27:46;;;;;;;;;;;;;;;0.40;91.99;102281.84;4950600;29;19966;-81
2023/04/05 06:30:12;;;;;;;;;;;;;;;0.48;92.07;102274.84;4935785;29;19961;-81
2023/04/05 06:32:37;;;;;;;;;;;;;;;0.61;91.89;102275.59;4936571;29;20021;-81
2023/04/05 06:35:03;;;;;;;;;;;;;;;0.76;91.10;102269.38;4950252;29;19949;-81
2023/04/05 06:37:28;;;;;;;;;;;;;;;0.92;91.56;102286.50;4936893;29;19910;-81
2023/04/05 06:39:54;;;;;;;;;;;;;;;1.05;91.57;102277.69;4941117;29;19914;-81
2023/04/05 06:42:19;;;;;;;;;;;;;;;1.18;91.43;102268.88;4941063;29;19964;-81
2023/04/05 06:44:44;;;;;;;;;;;;;;;1.34;91.60;102273.91;4934923;29;20407;-81
2023/04/05 06:47:10;;;;;;;;;;;;;;;1.51;91.05;102277.13;4935141;29;19995;-80
2023/04/05 06:49:35;;;;;;;;;;;;;;;1.68;90.75;102269.97;4919467;29;19914;-81
2023/04/05 06:52:01;;;;;;;;;;;;;;;1.86;90.10;102274.03;4935743;29;19949;-81
2023/04/05 06:54:27;;;;;;;;;;;;;;;2.07;89.85;102272.84;4936183;29;19933;-82
2023/04/05 06:56:52;;;;;;;;;;;;;;;2.29;88.91;102279.41;4935219;29;19915;-81
2023/04/05 06:59:17;;;;;;;;;;;;;;;2.51;90.37;102277.31;4935035;29;19911;-81
2023/04/05 07:01:42;;;;;;;;;;;;;;;2.73;89.95;102277.78;4937952;29;19961;-81
2023/04/05 07:04:08;;;;;;;;;;;;;;;2.92;89.58;102281.75;4930881;29;19927;-81
2023/04/05 07:06:37;;;;;;;;;;;;;;;3.12;89.03;102278.75;4940589;29;20367;-81
2023/04/05 07:09:04;;;;;;;;;;;;;;;3.33;88.36;102282.66;4934912;29;19910;-81
2023/04/05 07:11:31;;;;;;;;;;;;;;;3.49;87.40;102276.25;4933475;29;19914;-80
2023/04/05 07:13:57;;;;;;;;;;;;;;;3.71;86.19;102274.03;4935974;29;19910;-80
2023/04/05 07:16:22;;;;;;;;;;;;;;;3.92;84.69;102272.69;4943658;29;19924;-80
2023/04/05 07:18:48;;;;;;;;;;;;;;;4.15;83.83;102277.34;4953072;29;20282;-80
2023/04/05 07:21:13;;;;;;;;;;;;;;;4.35;81.41;102273.34;4936632;29;19919;-80
2023/04/05 07:23:39;;;;;;;;;;;;;;;4.57;82.82;102270.22;4934922;29;20387;-80
2023/04/05 07:26:04;;;;;;;;;;;;;;;4.79;79.41;102273.94;4948089;28;19918;-80
2023/04/05 07:28:31;;;;;;;;;;;;;;;4.98;79.31;102264.72;4935698;29;20002;-80
2023/04/05 07:30:56;;;;;;;;;;;;;;;5.19;81.63;102273.69;4930963;29;19922;-80
2023/04/05 07:33:22;;;;;;;;;;;;;;;5.42;80.68;102265.19;4949376;29;19915;-80
2023/04/05 07:35:52;;;;;;;;;;;;;;;5.62;79.23;102262.88;4933922;29;19942;-79
2023/04/05 07:38:17;;;;;;;;;;;;;;;5.82;77.88;102258.75;4934527;29;19965;-79
2023/04/05 07:40:42;;;;;;;;;;;;;;;6.02;77.58;102259.03;4923073;29;19919;-79
2023/04/05 07:43:07;;;;;;;;;;;;;;;6.25;78.41;102264.34;4910841;29;19919;-80
2023/04/05 07:45:32;;;;;;;;;;;;;;;6.50;77.20;102263.53;4915841;29;20058;-80
2023/04/05 07:47:58;;;;;;;;;;;;;;;6.72;72.48;102267.09;4923216;29;19917;-81
2023/04/05 07:50:23;;;;;;;;;;;;;;;6.91;73.89;102262.09;4915791;29;20408;-80
2023/04/05 07:52:48;;;;;;;;;;;;;;;7.15;73.66;102260.31;4915558;29;20171;-80
2023/04/05 07:55:13;;;;;;;;;;;;;;;7.34;72.50;102258.75;4923959;29;19933;-80
2023/04/05 07:57:39;;;;;;;;;;;;;;;7.45;70.52;102263.56;4916891;29;19919;-80
2023/04/05 08:00:09;;;;;;;;;;;;;;;7.57;70.31;102254.38;4914830;29;20376;-80
2023/04/05 08:02:34;;;;;;;;;;;;;;;7.76;70.49;102252.75;4914246;29;19922;-79
2023/04/05 08:05:00;;;;;;;;;;;;;;;7.94;68.56;102246.75;4930513;29;19930;-80
2023/04/05 08:07:25;;;;;;;;;;;;;;;8.19;73.44;102249.25;4909711;29;19910;-80
2023/04/05 08:09:50;;;;;;;;;;;;;;;8.33;70.37;102252.16;4933114;29;19922;-80
2023/04/05 08:12:16;;;;;;;;;;;;;;;8.47;71.13;102251.59;4934056;29;19967;-80
2023/04/05 08:14:41;;;;;;;;;;;;;;;8.64;70.35;102246.47;4922282;29;20001;-80
2023/04/05 08:17:06;;;;;;;;;;;;;;;8.92;68.45;102253.16;4927053;29;19919;-80
2023/04/05 08:19:31;;;;;;;;;;;;;;;9.03;65.59;102248.25;4948565;29;19906;-80
2023/04/05 08:21:57;;;;;;;;;;;;;;;9.05;64.78;102256.91;4931241;29;19917;-80
2023/04/05 08:24:22;;;;;;;;;;;;;;;9.20;65.41;102256.22;4933805;29;19937;-80
2023/04/05 08:26:48;;;;;;;;;;;;;;;9.47;64.57;102258.50;4948316;29;19974;-80
2023/04/05 08:29:14;;;;;;;;;;;;;;;9.59;62.49;102253.50;4951022;29;19926;-80
2023/04/05 08:31:39;;;;;;;;;;;;;;;9.63;65.84;102249.00;4938708;29;19915;-80
2023/04/05 08:34:07;;;;;;;;;;;;;;;9.80;62.92;102250.81;4940150;28;19918;-80
2023/04/05 08:36:32;;;;;;;;;;;;;;;9.90;67.64;102247.66;4934529;29;20371;-80
2023/04/05 08:38:57;;;;;;;;;;;;;;;10.09;62.32;102250.25;4948960;29;19965;-80
2023/04/05 08:41:23;;;;;;;;;;;;;;;10.14;61.17;102244.75;4952013;29;19914;-79
2023/04/05 08:43:54;;;;;;;;;;;;;;;10.25;61.50;102247.72;4938373;29;19925;-79
2023/04/05 08:46:19;;;;;;;;;;;;;;;10.46;61.31;102249.28;4962445;28;20397;-79
2023/04/05 08:48:45;;;;;;;;;;;;;;;10.51;62.83;102242.00;4930177;29;19918;-79
2023/04/05 08:51:10;;;;;;;;;;;;;;;10.50;56.59;102242.09;4922579;29;19914;-79
2023/04/05 08:53:35;;;;;;;;;;;;;;;10.60;65.08;102241.53;4927928;29;19973;-79
2023/04/05 08:56:01;;;;;;;;;;;;;;;10.72;62.08;102247.06;4952233;29;20395;-79
2023/04/05 08:58:27;;;;;;;;;;;;;;;10.82;59.08;102243.06;4922290;29;19915;-78
2023/04/05 09:00:54;;;;;;;;;;;;;;;10.84;63.02;102241.19;4933993;29;20260;-79
2023/04/05 09:03:23;;;;;;;;;;;;;;;10.99;65.53;102243.00;4929047;29;20468;-79
2023/04/05 09:05:52;;;;;;;;;;;;;;;11.07;58.14;102242.56;4933743;29;19910;-79
2023/04/05 09:08:17;;;;;;;;;;;;;;;11.22;52.56;102234.72;4933787;29;19943;-79
2023/04/05 09:10:42;;;;;;;;;;;;;;;11.41;58.38;102233.69;4952208;29;19911;-79
2023/04/05 09:13:08;;;;;;;;;;;;;;;11.48;57.55;102227.16;4946935;29;19969;-79
2023/04/05 09:15:37;;;;;;;;;;;;;;;11.48;49.86;102232.41;4932117;29;20386;-79
2023/04/05 09:18:03;;;;;;;;;;;;;;;11.46;57.00;102223.75;4937217;29;20287;-79
2023/04/05 09:20:28;;;;;;;;;;;;;;;11.40;52.98;102219.66;4950633;29;19921;-79
2023/04/05 09:22:55;;;;;;;;;;;;;;;11.46;58.27;102226.38;4932359;29;19922;-78
2023/04/05 09:25:39;;;;;;;;;;;;;;;11.54;50.22;102229.44;4943567;29;19925;-79
2023/04/05 09:28:05;;;;;;;;;;;;;;;11.47;54.22;102220.19;4940713;29;19918;-78
2023/04/05 09:30:31;;;;;;;;;;;;;;;11.59;50.21;102219.47;4934379;29;19915;-78
2023/04/05 09:32:57;;;;;;;;;;;;;;;11.62;53.75;102221.97;4934556;29;20493;-78
2023/04/05 09:35:29;;;;;;;;;;;;;;;11.69;58.87;102220.69;4932479;29;20058;-78
2023/04/05 09:37:57;;;;;;;;;;;;;;;11.84;58.22;102219.84;4932598;29;20009;-78
2023/04/05 09:40:22;;;;;;;;;;;;;;;12.12;57.92;102219.09;4939184;29;20218;-79
2023/04/05 09:42:48;;;;;;;;;;;;;;;12.29;55.62;102210.19;4947890;29;19918;-79
2023/04/05 09:45:17;;;;;;;;;;;;;;;12.49;49.71;102214.28;4941339;28;20287;-79
2023/04/05 09:47:52;;;;;;;;;;;;;;;12.70;56.01;102214.75;4949663;29;20294;-79
2023/04/05 09:50:18;;;;;;;;;;;;;;;12.96;51.97;102215.81;4951423;29;19910;-79
2023/04/05 09:52:43;;;;;;;;;;;;;;;13.33;51.05;102209.09;4951793;29;19914;-79
2023/04/05 09:55:09;;;;;;;;;;;;;;;13.99;51.71;102208.28;4947209;29;20290;-79
2023/04/05 09:57:39;;;;;;;;;;;;;;;14.76;43.26;102206.59;4935271;29;19919;-79
2023/04/05 10:00:05;;;;;;;;;;;;;;;15.26;40.98;102208.34;4946872;29;20298;-79
2023/04/05 10:02:39;;;;;;;;;;;;;;;15.72;42.47;102199.69;4939407;29;19915;-79
2023/04/05 10:05:12;;;;;;;;;;;;;;;16.62;42.28;102193.66;4947160;29;20367;-79
2023/04/05 10:07:37;;;;;;;;;;;;;;;17.79;42.59;102186.91;4936527;29;19910;-79
2023/04/05 10:10:03;;;;;;;;;;;;;;;19.25;39.75;102176.06;4947135;29;19944;-79
2023/04/05 10:12:30;;;;;;;;;;;;;;;20.15;37.57;102174.97;4931229;29;19918;-79
2023/04/05 10:14:56;;;;;;;;;;;;;;;21.01;38.90;102175.69;4940999;29;19965;-79
2023/04/05 10:17:21;;;;;;;;;;;;;;;22.14;32.21;102174.19;4943660;29;20386;-79
2023/04/05 10:19:58;;;;;;;;;;;;;;;22.72;34.66;102167.31;4924675;29;19942;-80
2023/04/05 10:22:39;;;;;;;;;;;;;;;23.01;31.13;102169.63;4939962;29;19914;-79
2023/04/05 10:25:11;;;;;;;;;;;;;;;23.49;32.75;102166.22;4932048;29;20303;-79
2023/04/05 10:27:40;;;;;;;;;;;;;;;23.48;28.06;102158.34;4931910;29;19919;-80
2023/04/05 10:30:07;;;;;;;;;;;;;;;23.10;26.51;102164.13;4931547;29;20299;-80
2023/04/05 10:32:45;;;;;;;;;;;;;;;23.07;32.25;102150.19;4935671;29;20467;-80
2023/04/05 10:35:10;;;;;;;;;;;;;;;22.87;30.56;102155.00;4923572;29;20279;-80
2023/04/05 10:37:54;;;;;;;;;;;;;;;22.71;32.34;102154.88;4930987;29;19921;-79
2023/04/05 10:40:21;;;;;;;;;;;;;;;22.26;32.15;102149.78;4931119;29;19925;-79
2023/04/05 10:42:46;;;;;;;;;;;;;;;21.64;31.59;102152.47;4932182;29;19915;-80
2023/04/05 10:45:14;;;;;;;;;;;;;;;20.69;35.15;102157.38;4931885;29;19922;-80
2023/04/05 10:47:45;;;;;;;;;;;;;;;19.41;37.10;102154.16;4930605;29;19919;-80
2023/04/05 10:50:14;;;;;;;;;;;;;;;18.47;36.14;102152.72;4925558;29;19915;-79
2023/04/05 10:52:40;;;;;;;;;;;;;;;17.55;38.06;102155.13;4942613;29;19919;-79
2023/04/05 10:55:07;;;;;;;;;;;;;;;16.79;40.58;102156.00;4931072;29;19953;-79
2023/04/05 10:57:32;;;;;;;;;;;;;;;16.12;39.04;102145.31;4934309;29;19914;-79
2023/04/05 10:59:58;;;;;;;;;;;;;;;15.69;39.91;102152.16;4941932;29;19914;-79
2023/04/05 11:02:24;;;;;;;;;;;;;;;15.43;43.12;102146.09;4949484;29;20427;-79
2023/04/05 11:04:55;;;;;;;;;;;;;;;15.08;40.35;102135.41;4935635;29;19941;-79
2023/04/05 11:07:20;;;;;;;;;;;;;;;14.80;41.10;102134.72;4935164;29;19914;-79
2023/04/05 11:10:00;;;;;;;;;;;;;;;14.59;38.64;102141.56;4949650;28;19921;-79
2023/04/05 11:12:44;;;;;;;;;;;;;;;14.35;43.24;102141.41;4939992;29;20006;-79
2023/04/05 11:15:26;;;;;;;;;;;;;;;14.26;41.21;102142.06;4935575;29;19946;-79
2023/04/05 11:18:00;;;;;;;;;;;;;;;14.33;42.45;102138.88;4934648;29;19967;-79
2023/04/05 11:20:25;;;;;;;;;;;;;;;14.56;42.39;102141.78;4923079;29;19974;-79
2023/04/05 11:22:53;;;;;;;;;;;;;;;14.48;41.67;102130.88;4933626;29;20379;-79
2023/04/05 11:25:23;;;;;;;;;;;;;;;14.38;39.92;102136.75;4922313;29;20013;-79
2023/04/05 11:28:05;;;;;;;;;;;;;;;14.46;42.35;102135.44;4933688;29;19965;-80
2023/04/05 11:30:57;;;;;;;;;;;;;;;14.23;41.78;102132.53;4940483;29;19914;-79
2023/04/05 11:33:41;;;;;;;;;;;;;;;14.03;42.57;102128.63;4946734;29;19918;-79
2023/04/05 11:36:06;;;;;;;;;;;;;;;14.02;42.32;102134.00;4938962;29;20018;-79
2023/04/05 11:38:32;;;;;;;;;;;;;;;14.01;41.60;102121.72;4933462;29;19994;-80
2023/04/05 11:41:05;;;;;;;;;;;;;;;14.05;40.16;102118.78;4922839;29;19925;-80
2023/04/05 11:43:30;;;;;;;;;;;;;;;14.12;41.79;102124.47;4934387;29;19974;-80
2023/04/05 11:45:55;;;;;;;;;;;;;;;14.12;42.33;102124.47;4935235;29;19918;-80
2023/04/05 11:48:21;;;;;;;;;;;;;;;13.95;41.59;102116.81;4937043;29;19910;-78
2023/04/05 11:50:46;;;;;;;;;;;;;;;13.74;41.66;102116.50;4937822;29;19918;-79
2023/04/05 11:53:15;;;;;;;;;;;;;;;13.75;41.53;102104.97;4933523;29;19911;-79
2023/04/05 11:55:42;;;;;;;;;;;;;;;13.94;40.13;102100.09;4934438;29;19927;-79
2023/04/05 11:58:14;;;;;;;;;;;;;;;14.02;35.56;102096.97;4925716;29;20295;-79
2023/04/05 12:00:39;;;;;;;;;;;;;;;14.06;38.65;102095.78;4918874;29;20371;-79
2023/04/05 12:03:05;;;;;;;;;;;;;;;14.22;42.06;102093.78;4927515;29;20001;-79
2023/04/05 12:05:45;;;;;;;;;;;;;;;14.53;40.53;102087.22;4933220;29;20376;-79
2023/04/05 12:08:10;;;;;;;;;;;;;;;14.88;41.48;102082.06;4933264;29;19922;-81
2023/04/05 12:10:36;;;;;;;;;;;;;;;15.16;42.68;102070.25;4934437;29;19910;-79
2023/04/05 12:13:01;;;;;;;;;;;;;;;15.45;39.51;102070.75;4946608;29;19918;-79
2023/04/05 12:15:26;;;;;;;;;;;;;;;15.62;39.78;102073.03;4919658;29;20568;-79
2023/04/05 12:17:53;;;;;;;;;;;;;;;15.37;38.92;102070.50;4936570;29;19918;-79
2023/04/05 12:20:20;;;;;;;;;;;;;;;14.79;34.85;102064.13;4944915;29;20331;-79
2023/04/05 12:22:47;;;;;;;;;;;;;;;14.60;39.62;102067.28;4935114;29;19919;-79
2023/04/05 12:25:13;;;;;;;;;;;;;;;14.54;38.17;102066.88;4934831;29;19918;-81
2023/04/05 12:27:39;;;;;;;;;;;;;;;14.34;39.65;102065.59;4936199;29;19929;-79